Time;durP1;ratioP1;P1;durP2;ratioP2;P2;SDS_P1;SDS_P2;PMS_P1;PMS_P2;Temp;Humidity;BMP_temperature;BMP_pressure;BME280_temperature;BME280_humidity;BME280_pressure;Samples;Min_cycle;Max_cycle;Signal;HPM_P1;HPM_P2
2021/10/29 00:01:05;;;;;;;23.55;18.80;;;;;;;;;;5093525;28;20070;-61
2021/10/29 00:03:30;;;;;;;24.48;18.38;;;;;;;;;;5091701;28;20111;-61
2021/10/29 00:05:55;;;;;;;23.80;18.70;;;;;;;;;;5093420;28;20133;-61
2021/10/29 00:08:20;;;;;;;21.27;17.83;;;;;;;;;;5093432;28;20028;-61
2021/10/29 00:10:46;;;;;;;23.45;17.35;;;;;;;;;;5107099;28;20023;-61
2021/10/29 00:13:14;;;;;;;23.00;16.95;;;;;;;;;;5106150;28;20054;-61
2021/10/29 00:15:39;;;;;;;21.67;16.20;;;;;;;;;;5092586;28;20541;-60
2021/10/29 00:18:04;;;;;;;19.50;15.47;;;;;;;;;;5085264;28;20075;-61
2021/10/29 00:20:30;;;;;;;21.07;16.03;;;;;;;;;;5096090;28;20043;-61
2021/10/29 00:22:55;;;;;;;23.03;16.10;;;;;;;;;;5100931;28;20505;-62
2021/10/29 00:25:20;;;;;;;21.52;16.33;;;;;;;;;;5093223;28;20464;-61
2021/10/29 00:27:45;;;;;;;22.20;15.60;;;;;;;;;;5084980;28;20169;-61
2021/10/29 00:30:11;;;;;;;20.27;15.33;;;;;;;;;;5092519;28;20048;-61
2021/10/29 00:32:36;;;;;;;21.57;16.87;;;;;;;;;;5093814;28;20103;-61
2021/10/29 00:35:01;;;;;;;22.20;16.47;;;;;;;;;;5093161;28;20027;-61
2021/10/29 00:37:26;;;;;;;21.90;16.40;;;;;;;;;;5093387;28;20032;-61
2021/10/29 00:39:52;;;;;;;22.93;17.23;;;;;;;;;;5092962;28;20024;-61
2021/10/29 00:42:17;;;;;;;23.90;16.20;;;;;;;;;;5093306;28;20032;-61
2021/10/29 00:44:43;;;;;;;23.40;16.57;;;;;;;;;;5092392;28;20110;-59
2021/10/29 00:47:08;;;;;;;22.63;17.97;;;;;;;;;;5091855;28;20059;-61
2021/10/29 00:49:33;;;;;;;26.00;19.63;;;;;;;;;;5092866;28;20096;-60
2021/10/29 00:51:59;;;;;;;28.13;19.47;;;;;;;;;;5096150;28;20068;-60
2021/10/29 00:54:24;;;;;;;24.27;18.83;;;;;;;;;;5092090;28;20076;-60
2021/10/29 00:56:50;;;;;;;25.40;17.63;;;;;;;;;;5090681;28;20016;-60
2021/10/29 00:59:17;;;;;;;25.43;18.83;;;;;;;;;;5090655;28;20043;-61
2021/10/29 01:01:42;;;;;;;23.97;17.17;;;;;;;;;;5092136;28;20013;-61
2021/10/29 01:04:08;;;;;;;21.27;16.17;;;;;;;;;;5091713;28;20016;-61
2021/10/29 01:06:33;;;;;;;22.83;15.83;;;;;;;;;;5091676;28;20422;-61
2021/10/29 01:08:59;;;;;;;22.70;16.73;;;;;;;;;;5091989;28;20431;-60
2021/10/29 01:11:26;;;;;;;19.20;14.90;;;;;;;;;;5092026;28;20035;-61
2021/10/29 01:13:51;;;;;;;20.47;14.83;;;;;;;;;;5092814;28;20400;-58
2021/10/29 01:16:16;;;;;;;21.20;14.47;;;;;;;;;;5091211;28;20522;-61
2021/10/29 01:18:42;;;;;;;17.23;13.43;;;;;;;;;;5092079;28;20376;-61
2021/10/29 01:21:07;;;;;;;18.20;13.93;;;;;;;;;;5099588;28;20070;-61
2021/10/29 01:23:33;;;;;;;22.33;16.57;;;;;;;;;;5106542;28;20056;-60
2021/10/29 01:26:07;;;;;;;21.67;16.80;;;;;;;;;;5099441;28;20030;-61
2021/10/29 01:28:33;;;;;;;22.27;16.77;;;;;;;;;;5094548;28;20024;-62
2021/10/29 01:30:58;;;;;;;24.67;17.47;;;;;;;;;;5092739;28;20024;-61
2021/10/29 01:33:23;;;;;;;20.63;14.50;;;;;;;;;;5091883;28;20026;-62
2021/10/29 01:35:48;;;;;;;18.57;14.07;;;;;;;;;;5094996;28;20059;-62
2021/10/29 01:38:15;;;;;;;18.03;14.50;;;;;;;;;;5089008;28;20028;-61
2021/10/29 01:40:40;;;;;;;17.40;14.17;;;;;;;;;;5072793;28;20021;-61
2021/10/29 01:43:05;;;;;;;17.97;13.23;;;;;;;;;;5085045;28;20020;-61
2021/10/29 01:45:31;;;;;;;18.90;13.87;;;;;;;;;;5094660;28;20428;-61
2021/10/29 01:47:57;;;;;;;18.97;14.40;;;;;;;;;;5092088;28;20027;-61
2021/10/29 01:50:22;;;;;;;19.43;13.57;;;;;;;;;;5092235;28;20024;-60
2021/10/29 01:52:47;;;;;;;18.93;14.40;;;;;;;;;;5091333;28;20071;-61
2021/10/29 01:55:12;;;;;;;18.67;13.37;;;;;;;;;;5097820;28;20114;-61
2021/10/29 01:57:37;;;;;;;16.53;12.63;;;;;;;;;;5082667;28;20028;-61
2021/10/29 02:00:04;;;;;;;17.63;13.13;;;;;;;;;;5091664;28;20361;-60
2021/10/29 02:02:29;;;;;;;16.50;13.77;;;;;;;;;;5094283;28;20114;-61
2021/10/29 02:04:54;;;;;;;18.87;13.80;;;;;;;;;;5091853;28;20060;-61
2021/10/29 02:07:19;;;;;;;17.93;13.67;;;;;;;;;;5091270;28;20114;-61
2021/10/29 02:09:45;;;;;;;17.03;13.87;;;;;;;;;;5100402;28;20417;-61
2021/10/29 02:12:10;;;;;;;21.53;15.97;;;;;;;;;;5100346;28;20039;-60
2021/10/29 02:14:35;;;;;;;20.17;15.37;;;;;;;;;;5093974;28;20030;-60
2021/10/29 02:17:01;;;;;;;22.13;15.93;;;;;;;;;;5104783;28;20122;-61
2021/10/29 02:19:26;;;;;;;19.97;13.70;;;;;;;;;;5116387;28;20395;-62
2021/10/29 02:21:52;;;;;;;17.23;13.17;;;;;;;;;;5076490;28;20055;-56
2021/10/29 02:24:17;;;;;;;18.20;14.23;;;;;;;;;;5099351;28;20024;-61
2021/10/29 02:26:43;;;;;;;18.27;13.47;;;;;;;;;;5110777;28;20395;-61
2021/10/29 02:29:09;;;;;;;19.53;14.83;;;;;;;;;;5093055;28;20123;-61
2021/10/29 02:31:34;;;;;;;19.13;14.33;;;;;;;;;;5095521;28;20101;-61
2021/10/29 02:33:59;;;;;;;19.20;14.27;;;;;;;;;;5094587;28;20028;-61
2021/10/29 02:36:24;;;;;;;16.93;13.13;;;;;;;;;;5095412;28;20070;-61
2021/10/29 02:38:50;;;;;;;17.17;13.67;;;;;;;;;;5115880;28;20019;-61
2021/10/29 02:41:15;;;;;;;16.70;13.27;;;;;;;;;;5115363;28;20027;-61
2021/10/29 02:43:47;;;;;;;18.37;13.63;;;;;;;;;;5105874;28;20110;-61
2021/10/29 02:46:12;;;;;;;18.93;14.03;;;;;;;;;;5094915;28;20488;-61
2021/10/29 02:48:37;;;;;;;17.70;13.27;;;;;;;;;;5108351;28;20038;-61
2021/10/29 02:51:03;;;;;;;17.23;12.83;;;;;;;;;;5114094;28;20023;-61
2021/10/29 02:53:30;;;;;;;18.73;13.63;;;;;;;;;;5103251;28;20077;-61
2021/10/29 02:55:55;;;;;;;21.83;15.70;;;;;;;;;;5094604;28;20557;-61
2021/10/29 02:58:21;;;;;;;24.93;17.63;;;;;;;;;;5092787;28;20036;-62
2021/10/29 03:00:46;;;;;;;31.07;20.50;;;;;;;;;;5093241;28;20059;-60
2021/10/29 03:03:11;;;;;;;23.50;17.80;;;;;;;;;;5094350;28;20122;-56
2021/10/29 03:05:38;;;;;;;20.37;14.70;;;;;;;;;;5094781;28;20020;-61
2021/10/29 03:08:04;;;;;;;18.73;14.17;;;;;;;;;;5096129;28;20099;-61
2021/10/29 03:10:29;;;;;;;20.77;14.90;;;;;;;;;;5088672;28;20451;-61
2021/10/29 03:12:54;;;;;;;20.17;14.73;;;;;;;;;;5094417;28;20552;-61
2021/10/29 03:15:19;;;;;;;19.20;14.80;;;;;;;;;;5088150;28;20178;-61
2021/10/29 03:17:45;;;;;;;21.20;16.03;;;;;;;;;;5079161;28;20496;-61
2021/10/29 03:20:10;;;;;;;20.43;15.40;;;;;;;;;;5095518;28;20484;-62
2021/10/29 03:22:36;;;;;;;21.90;14.40;;;;;;;;;;5093807;28;20396;-61
2021/10/29 03:25:01;;;;;;;19.47;14.00;;;;;;;;;;5093428;28;20081;-58
2021/10/29 03:27:26;;;;;;;21.77;14.87;;;;;;;;;;5095305;28;20032;-61
2021/10/29 03:29:52;;;;;;;26.07;19.00;;;;;;;;;;5097704;28;20399;-61
2021/10/29 03:32:19;;;;;;;32.13;22.37;;;;;;;;;;5105828;28;20091;-62
2021/10/29 03:34:44;;;;;;;30.30;21.97;;;;;;;;;;5093477;28;20078;-61
2021/10/29 03:37:24;;;;;;;32.03;23.43;;;;;;;;;;5093679;28;20024;-62
2021/10/29 03:39:57;;;;;;;33.83;23.27;;;;;;;;;;5089099;28;20093;-61
2021/10/29 03:42:29;;;;;;;33.23;23.67;;;;;;;;;;5107383;28;20043;-62
2021/10/29 03:45:03;;;;;;;35.83;23.43;;;;;;;;;;5066270;28;20807;-62
2021/10/29 03:47:32;;;;;;;38.80;24.53;;;;;;;;;;5076019;28;20020;-62
2021/10/29 03:50:16;;;;;;;34.13;24.03;;;;;;;;;;5092696;28;20024;-61
2021/10/29 03:53:07;;;;;;;33.30;24.50;;;;;;;;;;5058277;28;20033;-61
2021/10/29 03:55:34;;;;;;;30.02;21.70;;;;;;;;;;5075606;28;20413;-61
2021/10/29 03:58:00;;;;;;;31.63;22.80;;;;;;;;;;5089775;28;20107;-61
2021/10/29 04:00:28;;;;;;;31.70;22.03;;;;;;;;;;5093385;28;20039;-61
2021/10/29 04:02:54;;;;;;;26.43;19.20;;;;;;;;;;5098010;28;20099;-61
2021/10/29 04:05:20;;;;;;;25.33;17.60;;;;;;;;;;5093849;28;20044;-61
2021/10/29 04:07:45;;;;;;;25.27;17.90;;;;;;;;;;5093127;28;20032;-61
2021/10/29 04:10:10;;;;;;;20.67;15.93;;;;;;;;;;5093480;28;20518;-61
2021/10/29 04:12:37;;;;;;;21.03;14.83;;;;;;;;;;5092528;28;20024;-61
2021/10/29 04:15:03;;;;;;;22.07;16.27;;;;;;;;;;5093094;28;20028;-61
2021/10/29 04:17:28;;;;;;;20.57;14.37;;;;;;;;;;5093835;28;20043;-62
2021/10/29 04:19:54;;;;;;;19.97;15.07;;;;;;;;;;5112760;28;20128;-62
2021/10/29 04:22:19;;;;;;;22.00;16.13;;;;;;;;;;5111308;28;20130;-62
2021/10/29 04:24:44;;;;;;;22.23;16.10;;;;;;;;;;5111454;28;20024;-61
2021/10/29 04:27:18;;;;;;;21.60;16.00;;;;;;;;;;5088912;28;20012;-61
2021/10/29 04:29:44;;;;;;;19.63;14.90;;;;;;;;;;5092707;28;20068;-61
2021/10/29 04:32:10;;;;;;;20.90;15.97;;;;;;;;;;5084030;28;20051;-62
2021/10/29 04:34:35;;;;;;;21.17;15.37;;;;;;;;;;5092647;28;20030;-61
2021/10/29 04:37:00;;;;;;;19.57;15.57;;;;;;;;;;5092445;28;20060;-62
2021/10/29 04:39:27;;;;;;;17.50;14.10;;;;;;;;;;5106406;28;20027;-62
2021/10/29 04:41:52;;;;;;;17.67;13.30;;;;;;;;;;5092982;28;20055;-62
2021/10/29 04:44:18;;;;;;;19.27;13.93;;;;;;;;;;5099326;28;20028;-61
2021/10/29 04:46:43;;;;;;;16.40;12.90;;;;;;;;;;5074033;28;20020;-62
2021/10/29 04:49:09;;;;;;;18.30;12.73;;;;;;;;;;5078878;28;20064;-61
2021/10/29 04:51:34;;;;;;;18.13;12.43;;;;;;;;;;5112562;28;20020;-59
2021/10/29 04:54:00;;;;;;;17.03;13.13;;;;;;;;;;5107539;28;20023;-61
2021/10/29 04:56:25;;;;;;;18.27;13.40;;;;;;;;;;5091440;28;20106;-61
2021/10/29 04:58:50;;;;;;;18.40;12.90;;;;;;;;;;5089018;28;20032;-61
2021/10/29 05:01:15;;;;;;;18.30;12.73;;;;;;;;;;5109638;28;20016;-60
2021/10/29 05:03:41;;;;;;;19.67;12.77;;;;;;;;;;5091885;28;20032;-61
2021/10/29 05:06:06;;;;;;;16.87;13.50;;;;;;;;;;5103316;28;20426;-62
2021/10/29 05:08:31;;;;;;;16.03;13.13;;;;;;;;;;5082856;28;20020;-61
2021/10/29 05:10:57;;;;;;;17.40;12.10;;;;;;;;;;5092191;28;20021;-62
2021/10/29 05:13:22;;;;;;;17.03;12.20;;;;;;;;;;5092282;28;20077;-61
2021/10/29 05:15:47;;;;;;;16.47;12.20;;;;;;;;;;5101197;28;20038;-61
2021/10/29 05:18:17;;;;;;;18.10;13.10;;;;;;;;;;5094779;28;20059;-62
2021/10/29 05:20:45;;;;;;;16.83;12.43;;;;;;;;;;5092443;28;20103;-61
2021/10/29 05:23:11;;;;;;;15.20;11.93;;;;;;;;;;5091616;28;20411;-62
2021/10/29 05:25:36;;;;;;;16.90;13.57;;;;;;;;;;5092532;28;20065;-61
2021/10/29 05:28:01;;;;;;;16.73;12.03;;;;;;;;;;5089896;28;20547;-62
2021/10/29 05:30:26;;;;;;;17.63;12.30;;;;;;;;;;5093745;28;20553;-61
2021/10/29 05:32:51;;;;;;;16.27;12.40;;;;;;;;;;5098648;28;20028;-61
2021/10/29 05:35:17;;;;;;;19.03;12.73;;;;;;;;;;5112512;28;20115;-64
2021/10/29 05:37:42;;;;;;;16.03;11.03;;;;;;;;;;5084860;28;20361;-61
2021/10/29 05:40:08;;;;;;;17.77;11.97;;;;;;;;;;5091960;28;20059;-62
2021/10/29 05:42:33;;;;;;;17.97;11.33;;;;;;;;;;5091339;28;20021;-62
2021/10/29 05:45:00;;;;;;;17.93;12.27;;;;;;;;;;5091444;28;20376;-62
2021/10/29 05:47:25;;;;;;;16.27;12.00;;;;;;;;;;5100413;28;20069;-60
2021/10/29 05:49:50;;;;;;;17.57;11.83;;;;;;;;;;5110719;28;20008;-61
2021/10/29 05:52:19;;;;;;;19.87;13.23;;;;;;;;;;5077960;28;20048;-61
2021/10/29 05:57:23;;;;;;;20.30;14.87;;;;;;;;;;5084990;28;20105;-61
2021/10/29 05:59:48;;;;;;;21.67;15.57;;;;;;;;;;5093069;28;20552;-62
2021/10/29 06:02:14;;;;;;;20.10;14.23;;;;;;;;;;5098439;28;20044;-61
2021/10/29 06:04:39;;;;;;;19.77;13.03;;;;;;;;;;5098173;28;20020;-62
2021/10/29 06:07:05;;;;;;;18.03;13.53;;;;;;;;;;5097456;28;20077;-59
2021/10/29 06:09:30;;;;;;;22.27;12.93;;;;;;;;;;5102235;28;20455;-62
2021/10/29 06:11:56;;;;;;;18.10;13.17;;;;;;;;;;5095160;28;20052;-61
2021/10/29 06:14:21;;;;;;;19.63;12.70;;;;;;;;;;5097281;28;20492;-61
2021/10/29 06:16:46;;;;;;;18.93;13.67;;;;;;;;;;5079150;28;20426;-61
2021/10/29 06:19:12;;;;;;;19.80;14.67;;;;;;;;;;5097848;28;20028;-61
2021/10/29 06:21:47;;;;;;;18.67;13.47;;;;;;;;;;5096543;28;20028;-62
2021/10/29 06:24:15;;;;;;;17.30;12.67;;;;;;;;;;5100839;28;20100;-62
2021/10/29 06:26:52;;;;;;;18.27;13.37;;;;;;;;;;5116366;28;20498;-61
2021/10/29 06:29:17;;;;;;;18.80;13.37;;;;;;;;;;5095821;28;20051;-62
2021/10/29 06:31:43;;;;;;;17.40;12.53;;;;;;;;;;5097902;28;20016;-61
2021/10/29 06:34:09;;;;;;;16.60;12.53;;;;;;;;;;5092131;28;20103;-62
2021/10/29 06:36:36;;;;;;;17.17;12.20;;;;;;;;;;5090834;28;20119;-61
2021/10/29 06:39:02;;;;;;;20.03;13.03;;;;;;;;;;5091268;28;20067;-60
2021/10/29 06:41:28;;;;;;;27.07;16.20;;;;;;;;;;5083722;28;20059;-61
2021/10/29 06:47:01;;;;;;;21.80;16.17;;;;;;;;;;5093764;28;20085;-61
2021/10/29 07:00:26;;;;;;;15.80;12.73;;;;;;;;;;5092072;28;20069;-61
2021/10/29 07:03:25;;;;;;;17.67;13.00;;;;;;;;;;5081582;28;20472;-62
2021/10/29 07:41:19;;;;;;;20.25;15.70;;;;;;;;;;5031649;28;20056;-61
2021/10/29 07:43:50;;;;;;;18.98;16.25;;;;;;;;;;5031042;28;20038;-61
2021/10/29 07:46:16;;;;;;;18.33;15.95;;;;;;;;;;5031379;28;20042;-63
2021/10/29 07:48:42;;;;;;;19.85;16.20;;;;;;;;;;5030991;28;20043;-61
2021/10/29 07:51:07;;;;;;;17.92;15.68;;;;;;;;;;5031510;28;20021;-61
2021/10/29 07:53:34;;;;;;;18.45;15.43;;;;;;;;;;5030389;28;20063;-62
2021/10/29 07:56:01;;;;;;;20.08;15.88;;;;;;;;;;5023653;28;20033;-61
2021/10/29 07:58:26;;;;;;;17.40;15.60;;;;;;;;;;5030349;28;20076;-62
2021/10/29 08:00:51;;;;;;;19.35;15.65;;;;;;;;;;5032604;28;20068;-62
2021/10/29 08:03:17;;;;;;;19.25;16.50;;;;;;;;;;5032117;28;20064;-61
2021/10/29 08:05:45;;;;;;;18.75;15.10;;;;;;;;;;5028309;28;20056;-62
2021/10/29 08:08:11;;;;;;;18.75;15.25;;;;;;;;;;5024418;28;20039;-62
2021/10/29 08:10:37;;;;;;;16.75;14.95;;;;;;;;;;5031251;28;20440;-62
2021/10/29 08:13:03;;;;;;;17.63;15.20;;;;;;;;;;5027922;28;20029;-62
2021/10/29 08:15:28;;;;;;;17.42;15.60;;;;;;;;;;5022201;28;20042;-61
2021/10/29 08:17:53;;;;;;;17.30;14.15;;;;;;;;;;5043968;28;20101;-58
2021/10/29 08:20:21;;;;;;;17.20;14.95;;;;;;;;;;5092912;28;20016;-61
2021/10/29 08:22:46;;;;;;;16.27;13.98;;;;;;;;;;5092596;28;20028;-62
2021/10/29 08:25:12;;;;;;;15.40;13.70;;;;;;;;;;5091726;28;20023;-61
2021/10/29 08:27:38;;;;;;;16.65;13.35;;;;;;;;;;5086606;28;20035;-61
2021/10/29 08:30:04;;;;;;;15.05;13.45;;;;;;;;;;5090688;28;20040;-61
2021/10/29 08:32:29;;;;;;;16.90;14.38;;;;;;;;;;5065029;28;20123;-62
2021/10/29 08:34:55;;;;;;;15.50;13.60;;;;;;;;;;5091916;28;20119;-62
2021/10/29 08:37:22;;;;;;;16.75;13.55;;;;;;;;;;5092198;28;20158;-62
2021/10/29 08:39:47;;;;;;;14.48;11.73;;;;;;;;;;5104266;28;20031;-62
2021/10/29 08:42:13;;;;;;;14.35;12.23;;;;;;;;;;5108067;28;20395;-62
2021/10/29 08:44:38;;;;;;;13.43;11.45;;;;;;;;;;5094525;28;20022;-63
2021/10/29 08:47:04;;;;;;;14.07;11.93;;;;;;;;;;5075241;28;20024;-62
2021/10/29 08:49:30;;;;;;;13.63;12.20;;;;;;;;;;5098840;28;20024;-61
2021/10/29 08:51:56;;;;;;;13.40;11.65;;;;;;;;;;5092630;28;20115;-61
2021/10/29 08:54:22;;;;;;;12.90;11.60;;;;;;;;;;5092820;28;20024;-61
2021/10/29 08:56:47;;;;;;;12.15;10.82;;;;;;;;;;5090471;28;20111;-60
2021/10/29 08:59:23;;;;;;;12.85;11.55;;;;;;;;;;5091832;28;20028;-61
2021/10/29 09:02:04;;;;;;;13.25;11.95;;;;;;;;;;5093240;28;20028;-60
2021/10/29 09:05:14;;;;;;;11.90;10.70;;;;;;;;;;5090249;28;20020;-58
2021/10/29 09:32:00;;;;;;;11.98;10.30;;;;;;;;;;5092451;28;20031;-59
2021/10/29 09:34:26;;;;;;;12.60;10.13;;;;;;;;;;5104826;28;20024;-60
2021/10/29 09:36:51;;;;;;;11.80;10.30;;;;;;;;;;5112571;28;20727;-61
2021/10/29 09:39:18;;;;;;;11.27;10.10;;;;;;;;;;5112751;28;20081;-60
2021/10/29 09:41:43;;;;;;;12.45;10.70;;;;;;;;;;5108358;28;20027;-59
2021/10/29 09:44:15;;;;;;;12.48;9.88;;;;;;;;;;5087979;28;20115;-58
2021/10/29 09:46:46;;;;;;;12.07;10.25;;;;;;;;;;5091872;28;20103;-59
2021/10/29 09:49:14;;;;;;;14.90;9.90;;;;;;;;;;5092376;28;20376;-59
2021/10/29 09:51:51;;;;;;;12.40;11.13;;;;;;;;;;5094029;28;20012;-59
2021/10/29 09:54:19;;;;;;;13.05;11.75;;;;;;;;;;5092307;28;20028;-60
2021/10/29 09:56:53;;;;;;;11.88;10.57;;;;;;;;;;5090860;28;20035;-58
2021/10/29 09:59:19;;;;;;;11.50;10.43;;;;;;;;;;5089783;28;20042;-59
2021/10/29 10:01:44;;;;;;;11.32;10.25;;;;;;;;;;5091641;28;20012;-59
2021/10/29 10:04:10;;;;;;;11.32;10.23;;;;;;;;;;5091607;28;20191;-60
2021/10/29 10:06:39;;;;;;;10.40;9.40;;;;;;;;;;5090942;28;20191;-59
2021/10/29 10:09:08;;;;;;;10.15;9.20;;;;;;;;;;5089467;28;20031;-61
2021/10/29 10:11:34;;;;;;;10.38;9.38;;;;;;;;;;5053230;28;20059;-60
2021/10/29 10:14:01;;;;;;;9.20;8.30;;;;;;;;;;5093116;28;20073;-60
2021/10/29 10:16:30;;;;;;;11.13;10.02;;;;;;;;;;5092700;28;20032;-60
2021/10/29 10:18:55;;;;;;;10.52;9.63;;;;;;;;;;5091561;28;20051;-60
2021/10/29 10:21:22;;;;;;;10.55;9.55;;;;;;;;;;5090305;28;20071;-60
2021/10/29 10:23:50;;;;;;;10.98;9.80;;;;;;;;;;5077707;28;20027;-60
2021/10/29 10:26:27;;;;;;;11.85;10.75;;;;;;;;;;5087573;28;20103;-60
2021/10/29 10:40:53;;;;;;;11.77;10.70;;;;;;;;;;5095196;28;20479;-61
2021/10/29 10:43:06;;;;;;;11.63;10.73;;;;;;;;;;5082370;28;20051;-58
2021/10/29 10:45:46;;;;;;;12.05;11.05;;;;;;;;;;5090053;28;20019;-59
2021/10/29 10:48:12;;;;;;;11.63;10.63;;;;;;;;;;5115493;28;20039;-58
2021/10/29 10:50:43;;;;;;;11.85;10.82;;;;;;;;;;5099828;28;20073;-59
2021/10/29 10:53:10;;;;;;;11.45;10.55;;;;;;;;;;5080892;28;20039;-61
2021/10/29 10:56:08;;;;;;;11.68;10.73;;;;;;;;;;5094774;28;20103;-59
2021/10/29 10:58:46;;;;;;;12.18;10.75;;;;;;;;;;5086418;28;20024;-59
2021/10/29 11:04:27;;;;;;;12.18;10.48;;;;;;;;;;5094384;28;20024;-59
2021/10/29 11:07:28;;;;;;;10.60;9.80;;;;;;;;;;5084534;28;20085;-57
2021/10/29 11:09:59;;;;;;;11.82;10.73;;;;;;;;;;5093214;28;20058;-60
2021/10/29 11:12:45;;;;;;;11.45;10.45;;;;;;;;;;5093304;28;20107;-57
2021/10/29 11:15:17;;;;;;;11.18;10.18;;;;;;;;;;5103255;28;20016;-58
2021/10/29 11:17:59;;;;;;;10.82;9.93;;;;;;;;;;5093833;28;20053;-60
2021/10/29 11:20:54;;;;;;;11.52;10.43;;;;;;;;;;5097178;28;20101;-59
2021/10/29 11:23:22;;;;;;;10.90;9.90;;;;;;;;;;5090428;28;20036;-57
2021/10/29 11:25:51;;;;;;;10.88;9.98;;;;;;;;;;5094102;28;20020;-60
2021/10/29 11:28:16;;;;;;;11.80;10.80;;;;;;;;;;5093264;28;20035;-59
2021/10/29 11:30:43;;;;;;;13.45;12.32;;;;;;;;;;5092822;28;20040;-59
2021/10/29 11:33:08;;;;;;;13.30;12.15;;;;;;;;;;5092059;28;20024;-58
2021/10/29 11:35:34;;;;;;;14.02;12.90;;;;;;;;;;5074277;28;20023;-58
2021/10/29 11:38:00;;;;;;;12.45;11.55;;;;;;;;;;5092852;28;20028;-58
2021/10/29 11:40:26;;;;;;;13.38;12.23;;;;;;;;;;5080294;28;20082;-58
2021/10/29 11:42:52;;;;;;;13.68;12.57;;;;;;;;;;5091926;28;20635;-59
2021/10/29 11:45:27;;;;;;;13.23;12.02;;;;;;;;;;5094408;28;20035;-58
2021/10/29 11:47:59;;;;;;;13.82;12.73;;;;;;;;;;5096464;28;20071;-59
2021/10/29 11:50:24;;;;;;;13.18;12.07;;;;;;;;;;5087632;28;20021;-59
2021/10/29 11:52:49;;;;;;;13.13;12.02;;;;;;;;;;5086191;28;20214;-59
2021/10/29 11:55:20;;;;;;;13.75;12.60;;;;;;;;;;5074672;28;20511;-60
2021/10/29 11:57:54;;;;;;;13.52;12.32;;;;;;;;;;5087778;28;20035;-60
2021/10/29 12:00:33;;;;;;;12.60;11.52;;;;;;;;;;5092387;28;20028;-60
2021/10/29 12:06:00;;;;;;;13.30;12.20;;;;;;;;;;5095588;28;20043;-59
2021/10/29 12:08:26;;;;;;;14.32;13.10;;;;;;;;;;5092142;28;20046;-58
2021/10/29 12:11:01;;;;;;;14.82;13.35;;;;;;;;;;5093194;28;20016;-60
2021/10/29 12:13:28;;;;;;;14.48;13.27;;;;;;;;;;5093148;28;20095;-59
2021/10/29 12:15:54;;;;;;;13.98;12.77;;;;;;;;;;5092750;28;20059;-58
2021/10/29 12:18:23;;;;;;;13.85;12.70;;;;;;;;;;5087836;28;20028;-59
2021/10/29 12:20:50;;;;;;;14.18;12.77;;;;;;;;;;5092728;28;20028;-59
2021/10/29 12:23:18;;;;;;;13.77;12.57;;;;;;;;;;5091580;28;20035;-60
2021/10/29 12:30:46;;;;;;;13.95;12.75;;;;;;;;;;5073891;28;20181;-57
2021/10/29 13:02:59;;;;;;;16.23;14.63;;;;;;;;;;5076603;28;20031;-59
2021/10/29 13:05:25;;;;;;;16.70;15.10;;;;;;;;;;5092596;28;20027;-60
2021/10/29 13:07:50;;;;;;;17.10;15.30;;;;;;;;;;5087732;28;20369;-59
2021/10/29 13:10:15;;;;;;;15.70;14.10;;;;;;;;;;5091510;28;20020;-59
2021/10/29 13:15:14;;;;;;;16.85;15.05;;;;;;;;;;5092043;28;20086;-60
2021/10/29 13:17:49;;;;;;;17.17;15.48;;;;;;;;;;5087446;28;20078;-59
2021/10/29 13:23:19;;;;;;;18.17;15.32;;;;;;;;;;5091703;28;20506;-58
2021/10/29 13:28:43;;;;;;;17.05;15.35;;;;;;;;;;5079399;28;20047;-58
2021/10/29 14:30:30;;;;;;;17.52;14.82;;;;;;;;;;5017447;28;20064;-59
2021/10/29 14:33:06;;;;;;;19.17;15.32;;;;;;;;;;5011781;28;20034;-60
2021/10/29 14:35:33;;;;;;;18.95;14.82;;;;;;;;;;5012132;28;20030;-59
2021/10/29 14:40:49;;;;;;;18.20;15.35;;;;;;;;;;5012644;28;20037;-58
2021/10/29 14:43:19;;;;;;;18.63;14.90;;;;;;;;;;5011361;28;20138;-59
2021/10/29 14:46:05;;;;;;;17.10;15.27;;;;;;;;;;5012722;28;20149;-59
2021/10/29 14:48:48;;;;;;;18.05;15.48;;;;;;;;;;5011772;28;20022;-59
2021/10/29 15:02:31;;;;;;;17.63;15.73;;;;;;;;;;5074180;28;20230;-54
2021/10/29 15:05:12;;;;;;;20.95;17.45;;;;;;;;;;5073164;28;20040;-55
2021/10/29 15:16:24;;;;;;;19.00;16.33;;;;;;;;;;5073416;28;20058;-50
2021/10/29 15:27:04;;;;;;;20.30;16.50;;;;;;;;;;5071250;28;20400;-55
2021/10/29 15:45:37;;;;;;;18.60;16.58;;;;;;;;;;5000885;28;20036;-53
2021/10/29 15:50:36;;;;;;;21.48;17.40;;;;;;;;;;5011028;28;20538;-56
2021/10/29 15:53:02;;;;;;;19.85;15.82;;;;;;;;;;5008478;28;20038;-54
2021/10/29 15:55:43;;;;;;;19.40;16.63;;;;;;;;;;4997452;28;20065;-56
2021/10/29 16:00:51;;;;;;;22.38;16.90;;;;;;;;;;5006215;28;20529;-56
2021/10/29 16:17:09;;;;;;;21.15;17.85;;;;;;;;;;5065919;28;20420;-56
2021/10/29 16:19:35;;;;;;;20.00;17.67;;;;;;;;;;5083376;28;20020;-54
2021/10/29 16:22:05;;;;;;;21.15;18.48;;;;;;;;;;5066062;28;20142;-56
2021/10/29 16:24:30;;;;;;;24.13;19.33;;;;;;;;;;5059904;28;20024;-55
2021/10/29 16:26:56;;;;;;;21.65;19.35;;;;;;;;;;5050769;28;20396;-54
2021/10/29 16:29:25;;;;;;;21.60;19.27;;;;;;;;;;5066563;28;20045;-51
2021/10/29 16:31:54;;;;;;;24.48;21.15;;;;;;;;;;5053781;28;20036;-53
2021/10/29 16:34:19;;;;;;;29.08;23.65;;;;;;;;;;5068320;28;20031;-57
2021/10/29 16:36:44;;;;;;;24.98;21.48;;;;;;;;;;5071647;28;20385;-55
2021/10/29 16:39:10;;;;;;;25.42;20.60;;;;;;;;;;5071227;28;20461;-54
2021/10/29 16:41:35;;;;;;;23.77;19.67;;;;;;;;;;5054957;28;20434;-57
2021/10/29 16:44:00;;;;;;;27.40;20.42;;;;;;;;;;5091033;28;20624;-57
2021/10/29 16:46:26;;;;;;;23.50;20.80;;;;;;;;;;5073381;28;20020;-53
2021/10/29 16:48:51;;;;;;;25.30;20.85;;;;;;;;;;5079408;28;20503;-49
2021/10/29 16:51:17;;;;;;;24.30;19.85;;;;;;;;;;5070623;28;20397;-56
2021/10/29 16:53:43;;;;;;;23.30;20.73;;;;;;;;;;5080581;28;20035;-56
2021/10/29 16:56:09;;;;;;;24.60;20.98;;;;;;;;;;5079053;28;20119;-56
2021/10/29 16:58:35;;;;;;;26.67;21.73;;;;;;;;;;5063473;28;20111;-55
2021/10/29 17:01:00;;;;;;;28.38;22.75;;;;;;;;;;5070592;28;20040;-54
2021/10/29 17:03:25;;;;;;;28.45;22.52;;;;;;;;;;5065988;28;20055;-52
2021/10/29 17:05:51;;;;;;;26.92;21.52;;;;;;;;;;5082175;28;20043;-55
2021/10/29 17:08:17;;;;;;;24.92;21.85;;;;;;;;;;5074340;28;20374;-55
2021/10/29 17:10:42;;;;;;;25.15;21.40;;;;;;;;;;5085000;28;20056;-57
2021/10/29 17:13:07;;;;;;;26.35;23.13;;;;;;;;;;5086892;28;20431;-56
2021/10/29 17:15:33;;;;;;;28.38;22.67;;;;;;;;;;5085328;28;20035;-53
2021/10/29 17:17:59;;;;;;;24.70;21.73;;;;;;;;;;5071197;28;20025;-56
2021/10/29 17:20:24;;;;;;;27.15;22.38;;;;;;;;;;5061266;28;20056;-53
2021/10/29 17:22:50;;;;;;;25.67;21.60;;;;;;;;;;5084905;28;20039;-57
2021/10/29 17:25:15;;;;;;;28.42;21.65;;;;;;;;;;5060289;28;20027;-56
2021/10/29 17:27:41;;;;;;;26.02;21.38;;;;;;;;;;5069567;28;20020;-57
2021/10/29 17:30:06;;;;;;;25.55;21.02;;;;;;;;;;5071131;28;20057;-56
2021/10/29 17:32:32;;;;;;;27.42;22.73;;;;;;;;;;5072369;28;20245;-54
2021/10/29 17:34:58;;;;;;;26.40;21.98;;;;;;;;;;5081075;28;20020;-55
2021/10/29 17:37:23;;;;;;;25.83;21.33;;;;;;;;;;5087010;28;20030;-57
2021/10/29 17:39:48;;;;;;;26.55;20.98;;;;;;;;;;5090037;28;20020;-57
2021/10/29 17:42:14;;;;;;;26.17;20.85;;;;;;;;;;5075496;28;20028;-56
2021/10/29 17:44:40;;;;;;;29.90;23.85;;;;;;;;;;5070755;28;20032;-56
2021/10/29 17:47:06;;;;;;;30.60;23.85;;;;;;;;;;5070548;28;20037;-56
2021/10/29 17:49:32;;;;;;;31.77;24.48;;;;;;;;;;5071816;28;20028;-55
2021/10/29 17:52:01;;;;;;;24.38;21.13;;;;;;;;;;5070730;28;20021;-57
2021/10/29 17:54:29;;;;;;;29.13;24.35;;;;;;;;;;5074995;28;20028;-56
2021/10/29 17:56:55;;;;;;;28.83;24.23;;;;;;;;;;5088533;28;20388;-55
2021/10/29 17:59:20;;;;;;;30.17;23.95;;;;;;;;;;5064480;28;20500;-55
2021/10/29 18:01:45;;;;;;;27.52;21.42;;;;;;;;;;5058159;28;20393;-57
2021/10/29 18:04:10;;;;;;;29.02;23.38;;;;;;;;;;5071633;28;20086;-55
2021/10/29 18:06:35;;;;;;;30.83;24.58;;;;;;;;;;5071142;28;20119;-57
2021/10/29 18:09:05;;;;;;;27.63;23.10;;;;;;;;;;5074895;28;20066;-57
2021/10/29 18:11:31;;;;;;;31.65;24.65;;;;;;;;;;5091679;28;20035;-57
2021/10/29 18:13:56;;;;;;;29.10;24.65;;;;;;;;;;5091208;28;20543;-55
2021/10/29 18:16:23;;;;;;;30.48;25.52;;;;;;;;;;5073044;28;20147;-57
2021/10/29 18:18:48;;;;;;;32.30;25.60;;;;;;;;;;5059036;28;20032;-55
2021/10/29 18:21:13;;;;;;;28.77;24.63;;;;;;;;;;5070695;28;20389;-56
2021/10/29 18:23:39;;;;;;;31.27;24.25;;;;;;;;;;5080360;28;20078;-56
2021/10/29 18:26:04;;;;;;;29.65;24.63;;;;;;;;;;5089501;28;20069;-57
2021/10/29 18:28:30;;;;;;;29.48;24.23;;;;;;;;;;5054078;28;20104;-57
2021/10/29 18:30:55;;;;;;;30.48;24.73;;;;;;;;;;5083734;28;20488;-57
2021/10/29 18:33:20;;;;;;;30.42;25.48;;;;;;;;;;5052000;28;20029;-56
2021/10/29 18:35:45;;;;;;;27.27;23.65;;;;;;;;;;5053517;28;20513;-53
2021/10/29 18:38:10;;;;;;;25.65;22.42;;;;;;;;;;5071857;28;20086;-57
2021/10/29 18:40:36;;;;;;;32.13;26.70;;;;;;;;;;5090523;28;20078;-54
2021/10/29 18:43:01;;;;;;;31.67;23.98;;;;;;;;;;5090817;28;20095;-57